Time;durP1;ratioP1;P1;durP2;ratioP2;P2;SDS_P1;SDS_P2;PMS_P1;PMS_P2;Temp;Humidity;BMP_temperature;BMP_pressure;BME280_temperature;BME280_humidity;BME280_pressure;Samples;Min_cycle;Max_cycle;Signal;HPM_P1;HPM_P2
2023/01/12 07:35:35;;;;;;;6.27;2.10;;;10.50;99.90;12.00;100299.00;;;;5082577;28;20293;-66
2023/01/12 07:38:04;;;;;;;1.00;0.93;;;10.40;99.90;11.60;100334.00;;;;5077877;28;20194;-66
2023/01/12 07:40:32;;;;;;;0.77;0.43;;;10.40;99.90;12.00;100337.00;;;;5096133;28;20197;-66
2023/01/12 07:43:03;;;;;;;2.10;1.03;;;10.50;99.90;12.20;100333.00;;;;5077606;28;20197;-66
2023/01/12 07:45:29;;;;;;;1.17;1.07;;;10.50;99.90;11.50;100346.00;;;;5090340;28;20202;-66
2023/01/12 07:47:56;;;;;;;0.30;0.30;;;10.40;99.90;13.00;100349.00;;;;5077796;28;20193;-66
2023/01/12 07:50:24;;;;;;;0.30;0.30;;;10.70;99.90;13.40;100324.00;;;;5077915;28;20239;-66
2023/01/12 07:52:51;;;;;;;0.40;0.40;;;10.80;99.90;13.50;100323.00;;;;5068092;28;20265;-66
2023/01/12 07:55:20;;;;;;;9.33;1.67;;;11.00;99.90;12.90;100334.00;;;;5078078;28;20190;-66
2023/01/12 07:57:57;;;;;;;1.80;1.70;;;10.90;99.90;11.80;100312.00;;;;5077656;28;20216;-66
2023/01/12 08:00:25;;;;;;;0.30;0.30;;;10.70;99.90;12.80;100342.00;;;;5074332;28;20194;-66
2023/01/12 08:03:05;;;;;;;2.20;1.53;;;10.70;99.90;12.20;100334.00;;;;5074834;28;20199;-66
2023/01/12 08:05:32;;;;;;;4.00;1.40;;;10.70;99.90;12.00;100348.00;;;;5065170;28;20193;-65
2023/01/12 08:08:02;;;;;;;0.57;0.40;;;10.60;99.90;12.50;100368.00;;;;5075366;28;20224;-65
2023/01/12 08:10:28;;;;;;;0.87;0.87;;;10.60;99.90;12.30;100360.00;;;;5077860;28;20522;-65
2023/01/12 08:12:54;;;;;;;0.30;0.30;;;10.60;99.90;13.10;100331.00;;;;5077700;28;20216;-66
2023/01/12 08:15:20;;;;;;;3.10;2.03;;;10.70;99.90;11.90;100325.00;;;;5077689;28;20209;-66
2023/01/12 08:17:56;;;;;;;1.77;1.67;;;10.60;99.90;11.80;100371.00;;;;5076985;28;20199;-66
2023/01/12 08:20:30;;;;;;;3.23;1.47;;;10.60;99.90;11.80;100383.00;;;;5077461;28;20668;-65
2023/01/12 08:23:15;;;;;;;2.70;1.30;;;10.60;99.90;11.80;100375.00;;;;5076227;28;20200;-65
2023/01/12 08:25:45;;;;;;;4.47;0.80;;;10.60;99.90;12.30;100393.00;;;;5077082;28;20189;-65
2023/01/12 08:28:28;;;;;;;0.93;0.40;;;10.60;99.90;12.50;100351.00;;;;5090571;28;20192;-66
2023/01/12 08:30:54;;;;;;;0.87;0.87;;;10.70;99.90;12.50;100375.00;;;;5075498;28;20197;-65
2023/01/12 08:33:20;;;;;;;1.20;1.10;;;10.70;99.90;12.10;100379.00;;;;5076420;28;20951;-66
2023/01/12 08:35:47;;;;;;;1.17;1.03;;;10.70;99.90;11.90;100385.00;;;;5071017;28;20640;-66
2023/01/12 08:38:13;;;;;;;1.37;1.27;;;10.60;99.90;11.90;100383.00;;;;5092631;28;20191;-65
2023/01/12 08:46:08;;;;;;;0.80;0.80;;;10.80;99.90;12.70;100386.00;;;;5094897;28;20203;-66
2023/01/12 08:48:36;;;;;;;1.23;0.70;;;10.90;99.90;12.40;100388.00;;;;5094613;28;20192;-65
2023/01/12 08:51:06;;;;;;;0.40;0.40;;;10.80;99.90;12.50;100389.00;;;;5094727;28;20199;-66
2023/01/12 08:53:36;;;;;;;0.60;0.60;;;10.80;99.90;13.90;100395.00;;;;5063776;28;20212;-66
2023/01/12 08:56:03;;;;;;;0.40;0.40;;;11.10;99.90;13.10;100344.00;;;;5076516;28;20185;-66
2023/01/12 08:58:35;;;;;;;1.37;1.27;;;11.10;99.90;13.00;100385.00;;;;5088489;28;20207;-66
2023/01/12 09:01:09;;;;;;;0.90;0.90;;;11.10;99.90;12.80;100379.00;;;;5093434;28;20192;-66
2023/01/12 09:03:36;;;;;;;2.13;1.37;;;11.00;99.90;11.70;100390.00;;;;5048129;28;20209;-66
2023/01/12 09:06:14;;;;;;;0.93;0.80;;;10.80;99.90;11.90;100407.00;;;;5071458;28;20210;-65
2023/01/12 09:08:41;;;;;;;2.53;1.27;;;10.70;99.90;12.10;100400.00;;;;5090278;28;20628;-66
2023/01/12 09:11:08;;;;;;;1.03;0.33;;;10.70;99.90;12.80;100390.00;;;;5056705;28;20194;-66
2023/01/12 09:13:35;;;;;;;0.30;0.30;;;10.90;99.90;12.70;100383.00;;;;5071874;28;20221;-66
2023/01/12 09:16:07;;;;;;;0.90;0.77;;;10.80;99.90;11.90;100415.00;;;;5074521;28;20188;-66
2023/01/12 09:18:33;;;;;;;0.30;0.30;;;10.70;99.90;13.20;100420.00;;;;5094365;28;20192;-66
2023/01/12 09:21:08;;;;;;;3.27;1.60;;;11.00;99.90;12.10;100411.00;;;;5090324;28;20188;-66
2023/01/12 09:23:35;;;;;;;0.40;0.37;;;10.80;99.90;12.80;100423.00;;;;5077686;28;20197;-65
2023/01/12 09:26:04;;;;;;;0.93;0.60;;;10.90;99.90;12.80;100461.00;;;;5076049;28;20181;-65
2023/01/12 09:28:39;;;;;;;0.60;0.60;;;10.90;99.90;13.20;100426.00;;;;5093888;28;20188;-66
2023/01/12 09:31:18;;;;;;;2.50;1.30;;;11.10;99.90;12.00;100427.00;;;;5075832;28;20413;-66
2023/01/12 09:33:45;;;;;;;1.03;0.60;;;10.90;99.90;12.60;100426.00;;;;5059697;28;20304;-65
2023/01/12 09:36:15;;;;;;;0.63;0.40;;;10.90;99.90;12.60;100418.00;;;;5053585;28;20213;-65
2023/01/12 09:38:43;;;;;;;0.70;0.70;;;10.90;99.90;12.10;100435.00;;;;5082853;28;20198;-65
2023/01/12 09:47:35;;;;;;;0.93;0.93;;;10.90;99.90;12.80;100439.00;;;;5071643;28;20203;-65
2023/01/12 09:50:37;;;;;;;2.57;0.73;;;11.00;99.90;12.40;100452.00;;;;5073394;28;20204;-66
2023/01/12 09:53:23;;;;;;;0.80;0.80;;;10.80;99.90;12.50;100434.00;;;;5070148;28;20555;-66
2023/01/12 09:56:14;;;;;;;0.67;0.67;;;11.00;99.90;12.30;100458.00;;;;5062592;28;20230;-65
2023/01/12 09:59:06;;;;;;;0.60;0.60;;;10.90;99.90;12.60;100455.00;;;;5062471;28;20238;-65
2023/01/12 10:01:34;;;;;;;2.20;0.70;;;10.90;99.90;12.90;100448.00;;;;5072898;28;20550;-65
2023/01/12 10:04:03;;;;;;;0.40;0.40;;;11.00;99.90;12.80;100459.00;;;;5067941;28;20208;-65
2023/01/12 10:06:30;;;;;;;1.80;0.80;;;11.00;99.90;12.40;100459.00;;;;5061749;28;20661;-65
2023/01/12 10:09:01;;;;;;;0.30;0.30;;;10.90;99.90;13.30;100428.00;;;;5069894;28;20329;-65
2023/01/12 10:11:54;;;;;;;0.90;0.80;;;11.10;99.90;12.80;100457.00;;;;5070103;28;20198;-65
2023/01/12 10:14:32;;;;;;;0.93;0.93;;;11.10;99.90;12.50;100448.00;;;;5068304;28;20195;-65
2023/01/12 10:17:04;;;;;;;0.37;0.37;;;11.10;99.90;13.40;100456.00;;;;5058996;28;20812;-65
2023/01/12 10:19:41;;;;;;;0.63;0.63;;;11.20;99.90;12.70;100461.00;;;;5068445;28;20710;-65
2023/01/12 10:33:35;;;;;;;0.60;0.40;;;10.80;99.90;12.50;100509.00;;;;5070090;28;20544;-66
2023/01/12 10:36:18;;;;;;;0.40;0.40;;;10.90;99.90;12.30;100463.00;;;;5048964;28;20200;-66
2023/01/12 10:39:02;;;;;;;0.20;0.20;;;11.00;99.90;13.20;100493.00;;;;5032511;28;20194;-66
2023/01/12 10:41:38;;;;;;;1.20;0.73;;;11.10;99.90;13.00;100476.00;;;;5050246;28;20227;-66
2023/01/12 10:44:15;;;;;;;0.63;0.63;;;11.20;99.90;12.80;100468.00;;;;5048795;28;20298;-66
2023/01/12 10:46:45;;;;;;;0.20;0.20;;;11.20;99.90;13.90;100440.00;;;;5032624;28;20206;-66
2023/01/12 10:49:23;;;;;;;1.47;1.00;;;11.30;99.90;12.80;100469.00;;;;5047904;28;20528;-66
2023/01/12 10:52:05;;;;;;;0.77;0.67;;;11.20;99.90;12.90;100467.00;;;;5043398;28;20207;-66
2023/01/12 10:54:33;;;;;;;0.63;0.43;;;11.20;99.90;13.50;100464.00;;;;5057103;28;20195;-67
2023/01/12 10:57:02;;;;;;;3.43;1.23;;;11.30;99.90;13.40;100446.00;;;;5048151;28;20594;-66
2023/01/12 10:59:34;;;;;;;1.70;0.80;;;11.30;99.90;12.90;100439.00;;;;5049341;28;20192;-67
2023/01/12 11:02:07;;;;;;;0.20;0.20;;;11.30;99.90;13.90;100447.00;;;;5046368;28;20248;-66
2023/01/12 11:04:55;;;;;;;0.30;0.30;;;11.50;99.90;13.70;100445.00;;;;5046039;28;20202;-66
2023/01/12 11:07:30;;;;;;;0.83;0.83;;;11.50;99.90;13.30;100435.00;;;;5045365;28;20184;-67
2023/01/12 11:10:37;;;;;;;0.30;0.30;;;11.40;99.90;13.80;100431.00;;;;5046505;28;20189;-67
2023/01/12 11:13:41;;;;;;;1.00;0.87;;;11.50;99.90;14.40;100432.00;;;;5029821;28;20215;-67
2023/01/12 11:16:21;;;;;;;10.90;0.77;;;11.60;99.90;13.40;100431.00;;;;5041672;28;20835;-67
2023/01/12 11:19:14;;;;;;;0.30;0.30;;;11.50;99.90;13.90;100393.00;;;;5039486;28;20198;-67
2023/01/12 11:21:48;;;;;;;0.43;0.43;;;11.50;99.90;13.20;100437.00;;;;5046479;28;20184;-67
2023/01/12 11:24:56;;;;;;;0.50;0.50;;;11.40;99.90;13.50;100434.00;;;;5046308;28;20190;-67
2023/01/12 11:27:35;;;;;;;2.13;0.70;;;11.50;99.90;13.40;100426.00;;;;5024109;28;20200;-67
2023/01/12 11:30:25;;;;;;;0.30;0.30;;;11.50;99.90;14.00;100435.00;;;;5046797;28;20226;-68
2023/01/12 11:33:03;;;;;;;0.30;0.30;;;11.40;99.90;13.70;100429.00;;;;5047744;28;20570;-68
2023/01/12 11:35:40;;;;;;;0.30;0.30;;;11.50;99.90;12.80;100426.00;;;;5041440;28;20189;-68
2023/01/12 11:38:34;;;;;;;0.30;0.30;;;11.30;99.90;14.00;100432.00;;;;5028417;28;20315;-67
2023/01/12 11:41:08;;;;;;;0.60;0.60;;;11.30;99.90;14.40;100423.00;;;;5046999;28;20408;-68
2023/01/12 11:43:48;;;;;;;0.50;0.50;;;11.70;99.90;13.70;100379.00;;;;5041544;28;20187;-68
2023/01/12 11:46:38;;;;;;;0.40;0.40;;;11.50;99.90;14.00;100406.00;;;;5018631;28;20201;-67
2023/01/12 11:49:37;;;;;;;0.40;0.40;;;11.60;99.90;13.80;100397.00;;;;5034419;28;20685;-68
2023/01/12 11:52:03;;;;;;;0.63;0.63;;;11.50;99.90;13.50;100365.00;;;;5025096;28;20248;-67
2023/01/12 11:54:30;;;;;;;0.40;0.40;;;11.40;99.90;13.70;100398.00;;;;5035501;28;20190;-68
2023/01/12 11:57:42;;;;;;;0.40;0.40;;;11.40;99.90;14.30;100402.00;;;;5034342;28;20220;-67
2023/01/12 12:00:32;;;;;;;0.47;0.47;;;11.60;99.90;14.10;100364.00;;;;5024366;28;20661;-67
2023/01/12 12:03:43;;;;;;;0.40;0.40;;;11.70;99.90;13.90;100402.00;;;;5035484;28;20659;-67
2023/01/12 12:07:20;;;;;;;0.40;0.40;;;11.60;99.90;14.40;100392.00;;;;5034264;28;20181;-68
2023/01/12 12:10:21;;;;;;;0.97;0.97;;;11.60;99.90;13.70;100384.00;;;;5016708;28;20241;-68
2023/01/12 12:13:37;;;;;;;0.57;0.57;;;11.70;99.90;14.00;100386.00;;;;5012779;28;20234;-67
2023/01/12 12:16:23;;;;;;;0.40;0.40;;;11.60;99.90;14.00;100392.00;;;;5029644;28;20220;-67
2023/01/12 12:19:04;;;;;;;0.40;0.40;;;11.50;99.90;13.70;100378.00;;;;5028084;28;20199;-67
2023/01/12 12:21:46;;;;;;;0.50;0.50;;;11.50;99.90;13.50;100383.00;;;;5032487;28;20301;-67
2023/01/12 12:24:41;;;;;;;0.40;0.40;;;11.40;99.90;13.10;100359.00;;;;5017304;28;20278;-67
2023/01/12 12:27:20;;;;;;;0.40;0.40;;;11.20;99.90;13.70;100364.00;;;;5034249;28;20337;-67
2023/01/12 12:30:12;;;;;;;0.70;0.70;;;11.40;99.90;14.30;100367.00;;;;5033086;28;20179;-67
2023/01/12 12:33:08;;;;;;;0.50;0.50;;;11.70;99.90;14.30;100352.00;;;;5034913;28;20216;-67
2023/01/12 12:35:42;;;;;;;0.60;0.60;;;11.70;99.90;13.80;100360.00;;;;5035018;28;20188;-67
2023/01/12 12:38:30;;;;;;;0.40;0.40;;;11.60;99.90;13.40;100352.00;;;;5017190;28;20192;-67
2023/01/12 12:47:49;;;;;;;0.40;0.40;;;11.70;99.90;13.90;100343.00;;;;5024386;28;20202;-67
2023/01/12 12:50:23;;;;;;;0.40;0.40;;;11.60;99.90;13.40;100333.00;;;;5034437;28;20195;-67
2023/01/12 12:53:29;;;;;;;0.53;0.53;;;11.50;99.90;13.70;100350.00;;;;5033559;28;20192;-67
2023/01/12 12:56:02;;;;;;;0.80;0.60;;;11.40;99.90;13.40;100334.00;;;;5030511;28;20257;-67
2023/01/12 12:58:48;;;;;;;0.40;0.40;;;11.50;99.90;14.50;100325.00;;;;5033470;28;20195;-67
2023/01/12 13:01:20;;;;;;;0.60;0.60;;;11.70;99.90;14.20;100325.00;;;;5030020;28;20584;-67
2023/01/12 13:03:59;;;;;;;1.30;0.67;;;11.70;99.90;13.30;100294.00;;;;5034293;28;20270;-67
2023/01/12 13:06:36;;;;;;;0.73;0.73;;;11.50;99.90;13.20;100317.00;;;;5033569;28;20191;-67
2023/01/12 13:09:12;;;;;;;0.40;0.40;;;11.40;99.90;13.50;100275.00;;;;5033829;28;20191;-67
2023/01/12 13:11:58;;;;;;;0.40;0.40;;;11.40;99.90;13.60;100308.00;;;;5034263;28;20308;-67
2023/01/12 13:14:38;;;;;;;0.30;0.30;;;11.40;99.90;13.60;100321.00;;;;5033828;28;20653;-67
2023/01/12 13:17:20;;;;;;;0.40;0.40;;;11.40;99.90;13.80;100310.00;;;;5033040;28;20193;-67
2023/01/12 13:20:10;;;;;;;0.40;0.40;;;11.40;99.90;14.30;100318.00;;;;5032774;28;20536;-67
2023/01/12 13:22:50;;;;;;;0.40;0.40;;;11.50;99.90;13.70;100298.00;;;;5032836;28;20189;-67
2023/01/12 13:25:15;;;;;;;0.50;0.50;;;11.70;99.90;13.00;100304.00;;;;5033869;28;20176;-67
2023/01/12 13:27:59;;;;;;;0.60;0.60;;;11.50;99.90;13.50;100309.00;;;;5033728;28;20198;-68
2023/01/12 13:30:25;;;;;;;0.57;0.57;;;11.40;99.90;14.00;100296.00;;;;5034181;28;20183;-67
2023/01/12 13:33:09;;;;;;;0.63;0.63;;;11.60;99.90;13.30;100282.00;;;;5033833;28;20213;-67
2023/01/12 13:35:44;;;;;;;0.40;0.40;;;11.60;99.90;13.50;100298.00;;;;5025099;28;20565;-67
2023/01/12 13:38:38;;;;;;;0.63;0.50;;;11.50;99.90;12.90;100297.00;;;;5032095;28;20559;-67
2023/01/12 13:43:13;;;;;;;0.40;0.40;;;11.40;99.90;13.30;100304.00;;;;5032399;28;20188;-67
2023/01/12 13:44:00;;;;;;;0.83;0.57;;;11.40;99.90;14.20;100290.00;;;;5032676;28;20198;-67
2023/01/12 13:46:41;;;;;;;1.17;0.60;;;11.60;99.90;13.30;100292.00;;;;5032577;28;20659;-67
2023/01/12 13:49:34;;;;;;;0.40;0.40;;;11.40;99.90;13.60;100285.00;;;;5033300;28;20193;-67
2023/01/12 13:52:17;;;;;;;0.30;0.30;;;11.50;99.90;14.20;100281.00;;;;5020058;28;20260;-68
2023/01/12 13:54:50;;;;;;;0.57;0.57;;;11.60;99.90;14.30;100283.00;;;;5031672;28;20179;-67
2023/01/12 13:57:26;;;;;;;0.60;0.60;;;11.80;99.90;14.00;100265.00;;;;5015626;28;20183;-67
2023/01/12 14:00:20;;;;;;;0.53;0.53;;;11.70;99.90;13.90;100274.00;;;;5028985;28;20221;-67
2023/01/12 14:02:47;;;;;;;3.03;1.53;;;11.70;99.90;13.30;100253.00;;;;5032010;28;20182;-67
2023/01/12 14:05:21;;;;;;;0.70;0.70;;;11.60;99.90;13.50;100262.00;;;;5032030;28;20660;-67
2023/01/12 14:08:08;;;;;;;0.50;0.50;;;11.50;99.90;13.30;100276.00;;;;5032857;28;20674;-67
2023/01/12 14:10:58;;;;;;;1.60;1.00;;;11.50;99.90;13.40;100256.00;;;;5033149;28;20184;-66
2023/01/12 14:20:24;;;;;;;0.50;0.50;;;11.60;99.90;14.20;100278.00;;;;5045216;28;20297;-67
2023/01/12 14:23:26;;;;;;;0.47;0.47;;;11.60;99.90;14.30;100259.00;;;;5031867;28;20182;-67
2023/01/12 14:26:12;;;;;;;0.50;0.50;;;11.70;99.90;14.30;100273.00;;;;5033071;28;20180;-67
2023/01/12 14:28:44;;;;;;;0.50;0.50;;;11.80;99.90;14.60;100252.00;;;;5029329;28;20204;-67
2023/01/12 14:31:43;;;;;;;0.80;0.80;;;11.80;99.90;14.10;100261.00;;;;5031339;28;20187;-67
2023/01/12 14:34:33;;;;;;;0.60;0.60;;;11.80;99.90;13.70;100249.00;;;;5061521;28;20645;-66
2023/01/12 14:37:06;;;;;;;0.50;0.50;;;11.60;99.90;13.50;100250.00;;;;5031838;28;20183;-66
2023/01/12 14:39:39;;;;;;;0.40;0.40;;;11.50;99.90;14.50;100228.00;;;;5031673;28;20269;-67
2023/01/12 14:47:47;;;;;;;1.43;0.83;;;11.70;99.90;13.60;100232.00;;;;5031739;28;20243;-67
2023/01/12 14:50:25;;;;;;;0.30;0.30;;;11.70;99.90;13.20;100252.00;;;;5028636;28;20191;-66
2023/01/12 14:52:53;;;;;;;0.40;0.40;;;11.40;99.90;14.10;100238.00;;;;5027614;28;20279;-66
2023/01/12 14:55:38;;;;;;;0.47;0.47;;;11.60;99.90;14.60;100238.00;;;;5024272;28;20220;-67
2023/01/12 14:58:06;;;;;;;0.50;0.50;;;11.70;99.90;13.70;100213.00;;;;5025142;28;20188;-66
2023/01/12 15:00:34;;;;;;;0.60;0.60;;;11.60;99.90;12.80;100242.00;;;;5031622;28;20250;-66
2023/01/12 15:03:06;;;;;;;0.50;0.50;;;11.40;99.90;13.00;100233.00;;;;5032778;28;20227;-66
2023/01/12 15:05:36;;;;;;;0.30;0.30;;;11.40;99.90;13.90;100212.00;;;;5031320;28;20187;-67
2023/01/12 15:08:25;;;;;;;0.40;0.40;;;11.50;99.90;14.80;100234.00;;;;5031481;28;20628;-66
2023/01/12 15:11:09;;;;;;;1.00;1.00;;;11.70;99.90;13.40;100232.00;;;;5046625;28;20214;-66
2023/01/12 15:13:36;;;;;;;0.40;0.40;;;11.60;99.90;13.50;100233.00;;;;5031434;28;20194;-66
2023/01/12 15:27:19;;;;;;;0.70;0.70;;;11.30;99.90;13.50;100238.00;;;;5034558;28;20424;-66
2023/01/12 15:29:45;;;;;;;0.40;0.40;;;11.40;99.90;13.20;100241.00;;;;5035151;28;20218;-66
2023/01/12 15:32:33;;;;;;;0.70;0.70;;;11.30;99.90;13.50;100241.00;;;;5034545;28;20216;-66
2023/01/12 15:35:00;;;;;;;0.53;0.53;;;11.50;99.90;13.30;100235.00;;;;5030332;28;20266;-66
2023/01/12 15:37:26;;;;;;;0.40;0.40;;;11.40;99.90;13.70;100230.00;;;;5034597;28;20555;-66
2023/01/12 15:40:00;;;;;;;1.03;1.03;;;11.50;99.90;13.10;100215.00;;;;5018027;28;20271;-66
2023/01/12 15:42:26;;;;;;;0.60;0.60;;;11.40;99.90;13.10;100227.00;;;;5034423;28;20190;-66
2023/01/12 15:44:54;;;;;;;0.50;0.50;;;11.40;99.90;13.90;100225.00;;;;5034179;28;20180;-66
2023/01/12 15:47:20;;;;;;;0.50;0.50;;;11.50;99.90;13.40;100239.00;;;;5035137;28;20188;-66
2023/01/12 15:49:49;;;;;;;0.40;0.40;;;11.40;99.90;13.70;100232.00;;;;5033787;28;20655;-66
2023/01/12 15:52:25;;;;;;;0.40;0.40;;;11.40;99.90;13.60;100212.00;;;;5034225;28;20232;-66
2023/01/12 15:54:52;;;;;;;1.57;0.53;;;11.40;99.90;13.40;100224.00;;;;5027600;28;20242;-66
2023/01/12 15:57:18;;;;;;;0.93;0.93;;;11.40;99.90;13.50;100246.00;;;;5034558;28;20202;-66
2023/01/12 15:59:44;;;;;;;1.20;0.80;;;11.30;99.90;13.20;100236.00;;;;5035647;28;20577;-66
2023/01/12 16:02:35;;;;;;;0.83;0.50;;;11.30;99.90;13.50;100242.00;;;;5033826;28;20183;-66
2023/01/12 16:05:04;;;;;;;1.13;0.63;;;11.40;99.90;13.60;100198.00;;;;5035589;28;20192;-66
2023/01/12 16:07:30;;;;;;;0.30;0.30;;;11.50;99.90;13.60;100240.00;;;;5035226;28;20675;-66
2023/01/12 16:09:57;;;;;;;0.70;0.40;;;11.40;99.90;13.70;100232.00;;;;5035224;28;20187;-66
2023/01/12 16:12:23;;;;;;;1.33;1.13;;;11.40;99.90;13.30;100233.00;;;;5035218;28;20211;-67
2023/01/12 16:14:50;;;;;;;0.60;0.60;;;11.40;99.90;14.00;100229.00;;;;5034162;28;20176;-67
2023/01/12 16:17:16;;;;;;;0.50;0.50;;;11.60;99.90;13.60;100224.00;;;;5032227;28;20176;-66
2023/01/12 16:19:42;;;;;;;0.40;0.40;;;11.50;99.90;14.00;100234.00;;;;5016399;28;20246;-67
2023/01/12 16:22:21;;;;;;;1.43;1.10;;;11.60;99.90;13.70;100183.00;;;;5017474;28;20199;-66
2023/01/12 16:24:50;;;;;;;1.13;1.03;;;11.60;99.90;13.70;100221.00;;;;5035031;28;20654;-66
2023/01/12 16:27:18;;;;;;;0.97;0.87;;;11.50;99.90;13.80;100224.00;;;;5033652;28;20547;-66
2023/01/12 16:30:00;;;;;;;0.40;0.40;;;11.70;99.90;13.90;100217.00;;;;5033271;28;20190;-66
2023/01/12 16:32:26;;;;;;;0.40;0.40;;;11.80;99.90;13.70;100228.00;;;;5033241;28;20214;-67
2023/01/12 16:35:09;;;;;;;0.43;0.43;;;11.60;99.90;14.40;100216.00;;;;5024188;28;20642;-66
2023/01/12 16:37:38;;;;;;;0.57;0.57;;;11.80;99.90;13.20;100227.00;;;;5029644;28;20652;-66
2023/01/12 16:40:04;;;;;;;0.50;0.50;;;11.50;99.90;13.90;100233.00;;;;5033776;28;20651;-66
2023/01/12 16:42:30;;;;;;;0.73;0.73;;;11.60;99.90;14.50;100195.00;;;;5032929;28;20281;-66
2023/01/12 16:44:56;;;;;;;0.40;0.40;;;11.80;99.90;14.30;100227.00;;;;5034787;28;20775;-67
2023/01/12 16:47:25;;;;;;;0.97;0.87;;;11.80;99.90;12.80;100201.00;;;;5033120;28;20222;-66
2023/01/12 16:49:51;;;;;;;0.70;0.70;;;11.50;99.90;12.70;100228.00;;;;5034469;28;20316;-67
2023/01/12 16:52:20;;;;;;;0.40;0.40;;;11.30;99.90;13.80;100222.00;;;;5033430;28;20287;-67
2023/01/12 16:54:46;;;;;;;0.40;0.40;;;11.40;99.90;14.00;100221.00;;;;5033290;28;20187;-67
2023/01/12 16:57:17;;;;;;;0.40;0.40;;;11.60;99.90;14.30;100210.00;;;;5034234;28;20249;-66
2023/01/12 16:59:48;;;;;;;0.50;0.50;;;11.80;99.90;13.90;100204.00;;;;5032290;28;20201;-67
2023/01/12 17:02:15;;;;;;;1.43;1.33;;;11.70;99.90;12.30;100230.00;;;;5032951;28;20190;-66
2023/01/12 17:04:42;;;;;;;0.40;0.40;;;11.30;99.90;14.00;100225.00;;;;5033274;28;20194;-67
2023/01/12 17:07:11;;;;;;;0.73;0.73;;;11.40;99.90;13.40;100195.00;;;;5032760;28;20265;-67
2023/01/12 17:09:40;;;;;;;0.53;0.53;;;11.50;99.90;13.50;100209.00;;;;5032158;28;20183;-67
2023/01/12 17:12:06;;;;;;;0.50;0.50;;;11.50;99.90;14.40;100207.00;;;;5024450;28;20298;-66
2023/01/12 17:14:33;;;;;;;0.90;0.80;;;11.70;99.90;13.40;100215.00;;;;5034032;28;20239;-67
2023/01/12 17:17:04;;;;;;;0.63;0.63;;;11.50;99.90;13.90;100197.00;;;;5033200;28;20186;-67
2023/01/12 17:19:32;;;;;;;0.77;0.77;;;11.60;99.90;14.00;100201.00;;;;5041269;28;20241;-65
2023/01/12 17:22:01;;;;;;;6.83;0.83;;;11.60;99.90;14.00;100192.00;;;;5013490;28;20196;-66
2023/01/12 17:24:40;;;;;;;0.97;0.97;;;11.70;99.90;14.60;100211.00;;;;5033005;28;20196;-66
2023/01/12 17:27:24;;;;;;;0.50;0.50;;;11.80;99.90;13.40;100213.00;;;;5034447;28;20231;-66
2023/01/12 17:29:57;;;;;;;0.40;0.40;;;11.60;99.90;13.80;100199.00;;;;5032844;28;20187;-67
2023/01/12 17:32:43;;;;;;;0.60;0.60;;;11.50;99.90;14.60;100202.00;;;;5029221;28;20273;-67
2023/01/12 17:35:29;;;;;;;0.70;0.70;;;11.80;99.90;13.40;100195.00;;;;5030820;28;20230;-66
2023/01/12 17:38:02;;;;;;;0.60;0.60;;;11.60;99.90;14.60;100200.00;;;;5065015;28;20199;-66
2023/01/12 17:40:29;;;;;;;0.70;0.70;;;11.80;99.90;14.30;100184.00;;;;5033519;28;20203;-67
2023/01/12 17:43:05;;;;;;;1.07;1.07;;;11.80;99.90;13.00;100195.00;;;;5031893;28;20186;-66
2023/01/12 17:45:41;;;;;;;0.80;0.80;;;11.70;99.90;14.30;100197.00;;;;5039454;28;20188;-67
2023/01/12 17:48:11;;;;;;;1.47;1.10;;;11.80;99.90;12.90;100220.00;;;;5032479;28;20183;-66
2023/01/12 17:50:40;;;;;;;1.90;0.87;;;11.50;99.90;12.90;100217.00;;;;5032431;28;20625;-66
2023/01/12 17:53:09;;;;;;;0.40;0.40;;;11.40;99.90;14.10;100210.00;;;;5030704;28;20207;-66
2023/01/12 17:55:38;;;;;;;0.63;0.63;;;11.50;99.90;13.00;100216.00;;;;5064938;28;20192;-66
2023/01/12 17:58:04;;;;;;;0.50;0.50;;;11.40;99.90;13.70;100228.00;;;;5033170;28;20191;-66
2023/01/12 18:00:31;;;;;;;0.40;0.40;;;11.40;99.90;13.70;100223.00;;;;5033150;28;20187;-66
2023/01/12 18:02:57;;;;;;;0.40;0.40;;;11.50;99.90;13.40;100222.00;;;;5047769;28;20176;-66
2023/01/12 18:05:26;;;;;;;0.50;0.50;;;11.40;99.90;13.20;100232.00;;;;5015414;28;20638;-66
2023/01/12 18:07:52;;;;;;;1.43;1.33;;;11.40;99.90;12.80;100234.00;;;;5033750;28;20183;-66
2023/01/12 18:10:19;;;;;;;0.30;0.30;;;11.30;99.90;14.10;100231.00;;;;5027124;28;20206;-66
2023/01/12 18:12:45;;;;;;;0.77;0.73;;;11.50;99.90;13.00;100217.00;;;;5031781;28;20678;-66
2023/01/12 18:15:14;;;;;;;0.50;0.50;;;11.50;99.90;13.50;100237.00;;;;5030838;28;20270;-66
2023/01/12 18:17:40;;;;;;;1.17;1.00;;;11.50;99.90;13.10;100236.00;;;;5031979;28;20191;-66
2023/01/12 18:20:22;;;;;;;1.40;0.73;;;11.40;99.90;13.60;100221.00;;;;5031366;28;20234;-66
2023/01/12 18:22:49;;;;;;;0.80;0.80;;;11.40;99.90;12.90;100245.00;;;;5033325;28;20208;-66
2023/01/12 18:25:15;;;;;;;0.40;0.40;;;11.30;99.90;13.80;100218.00;;;;5031431;28;20195;-66
2023/01/12 18:27:43;;;;;;;0.90;0.90;;;11.50;99.90;13.30;100238.00;;;;5032212;28;20196;-67
2023/01/12 18:30:10;;;;;;;0.43;0.43;;;11.50;99.90;13.50;100234.00;;;;5012130;28;20202;-66
2023/01/12 18:32:36;;;;;;;0.90;0.90;;;11.50;99.90;12.80;100244.00;;;;5030123;28;20224;-66
2023/01/12 18:35:02;;;;;;;0.73;0.73;;;11.40;99.90;14.20;100229.00;;;;5031895;28;20188;-67
2023/01/12 18:37:33;;;;;;;0.63;0.60;;;11.60;99.90;14.00;100228.00;;;;5048072;28;20267;-67
2023/01/12 18:40:08;;;;;;;0.70;0.70;;;11.60;99.90;14.20;100215.00;;;;5015504;28;20192;-67
2023/01/12 18:42:57;;;;;;;0.50;0.50;;;11.70;99.90;13.80;100218.00;;;;5031259;28;20674;-67
2023/01/12 18:45:24;;;;;;;0.60;0.60;;;11.60;99.90;14.00;100212.00;;;;5031077;28;20195;-67
2023/01/12 18:53:24;;;;;;;0.60;0.60;;;11.80;99.90;14.40;100214.00;;;;5032472;28;20262;-67
2023/01/12 18:55:58;;;;;;;0.93;0.93;;;11.90;99.90;14.20;100172.00;;;;5025605;28;20212;-68
2023/01/12 18:58:28;;;;;;;0.90;0.90;;;11.80;99.90;14.50;100216.00;;;;5019779;28;20189;-67
2023/01/12 19:01:12;;;;;;;1.20;1.20;;;11.90;99.90;14.70;100206.00;;;;5035498;28;20191;-67
2023/01/12 19:03:38;;;;;;;0.60;0.60;;;12.10;99.90;15.40;100208.00;;;;5020367;28;20196;-67
2023/01/12 19:06:27;;;;;;;5.70;1.70;;;12.30;99.90;13.10;100201.00;;;;5035391;28;20190;-67
2023/01/12 19:11:40;;;;;;;0.50;0.50;;;11.80;99.90;14.10;100224.00;;;;5035402;28;20307;-67
2023/01/12 19:19:35;;;;;;;0.70;0.70;;;12.10;99.90;14.80;100214.00;;;;5033464;28;20582;-68
2023/01/12 19:30:16;;;;;;;0.80;0.80;;;11.80;99.90;14.10;100190.00;;;;5035029;28;20275;-67
2023/01/12 19:32:44;;;;;;;0.60;0.60;;;11.80;99.90;14.50;100206.00;;;;5035939;28;20216;-68
2023/01/12 19:35:09;;;;;;;0.90;0.90;;;11.90;99.90;14.90;100198.00;;;;5034841;28;20239;-68
2023/01/12 19:37:35;;;;;;;0.80;0.80;;;12.00;99.90;15.00;100196.00;;;;5018179;28;20235;-68
2023/01/12 19:40:08;;;;;;;0.90;0.90;;;12.00;99.90;14.40;100197.00;;;;5034339;28;20184;-68
2023/01/12 19:45:20;;;;;;;1.20;1.20;;;12.00;99.90;15.10;100177.00;;;;5035627;28;20188;-67
2023/01/12 19:47:47;;;;;;;0.90;0.90;;;12.10;99.90;14.20;100179.00;;;;5034604;28;20647;-67
2023/01/12 19:50:13;;;;;;;0.80;0.80;;;12.00;99.90;14.80;100174.00;;;;5014504;28;20659;-68
2023/01/12 19:52:42;;;;;;;0.90;0.90;;;12.10;99.90;14.90;100164.00;;;;5048487;28;20209;-68
2023/01/12 19:55:11;;;;;;;0.90;0.90;;;12.10;99.90;14.40;100174.00;;;;5034112;28;20194;-67
2023/01/12 19:57:38;;;;;;;1.07;1.07;;;12.10;99.90;14.80;100160.00;;;;5034484;28;20243;-68
2023/01/12 20:00:08;;;;;;;1.00;1.00;;;12.20;99.90;15.20;100151.00;;;;5034125;28;20191;-68
2023/01/12 20:02:34;;;;;;;0.80;0.80;;;12.20;99.90;15.30;100171.00;;;;5034061;28;20236;-68
2023/01/12 20:05:03;;;;;;;0.87;0.87;;;12.30;99.90;14.50;100156.00;;;;5033646;28;20219;-67
2023/01/12 20:07:29;;;;;;;0.83;0.83;;;12.10;99.90;14.30;100144.00;;;;5034014;28;20194;-67
2023/01/12 20:09:55;;;;;;;1.20;1.10;;;12.00;99.90;14.90;100142.00;;;;5034136;28;20185;-67
2023/01/12 20:12:20;;;;;;;1.20;1.10;;;12.10;99.90;14.10;100146.00;;;;5034904;28;20203;-68
2023/01/12 20:14:46;;;;;;;0.60;0.60;;;12.00;99.90;14.80;100151.00;;;;5034595;28;20184;-68